createdAt,value
2023-04-04T00:02:15.319Z,1.60
2023-04-04T00:04:45.718Z,1.57
2023-04-04T00:07:16.113Z,1.33
2023-04-04T00:09:50.672Z,1.70
2023-04-04T00:12:24.221Z,1.23
2023-04-04T00:14:51.680Z,1.70
2023-04-04T00:17:22.407Z,1.80
2023-04-04T00:19:52.867Z,1.50
2023-04-04T00:22:24.288Z,1.60
2023-04-04T00:24:54.486Z,1.30
2023-04-04T00:27:27.050Z,1.33
2023-04-04T00:29:57.319Z,1.30
2023-04-04T00:32:27.693Z,0.90
2023-04-04T00:34:57.933Z,1.10
2023-04-04T00:37:28.469Z,1.30
2023-04-04T00:39:59.900Z,1.10
2023-04-04T00:42:30.172Z,1.10
2023-04-04T00:45:02.159Z,1.40
2023-04-04T00:47:33.026Z,1.00
2023-04-04T00:50:03.465Z,1.10
2023-04-04T00:52:37.195Z,0.93
2023-04-04T00:55:09.347Z,0.83
2023-04-04T00:57:39.073Z,0.80
2023-04-04T01:00:11.690Z,1.20
2023-04-04T01:02:40.464Z,1.60
2023-04-04T01:05:11.969Z,1.60
2023-04-04T01:07:42.156Z,1.30
2023-04-04T01:10:16.375Z,0.90
2023-04-04T01:12:47.574Z,1.50
2023-04-04T01:15:17.507Z,1.27
2023-04-04T01:17:48.947Z,1.27
2023-04-04T01:20:22.605Z,1.63
2023-04-04T01:22:50.731Z,0.90
2023-04-04T01:25:34.066Z,1.20
2023-04-04T01:28:04.455Z,0.90
2023-04-04T01:30:33.000Z,1.10
2023-04-04T01:33:04.650Z,0.90
2023-04-04T01:35:43.080Z,1.00
2023-04-04T01:38:28.089Z,1.00
2023-04-04T01:41:01.790Z,1.10
2023-04-04T01:43:33.050Z,1.10
2023-04-04T01:46:03.968Z,1.13
2023-04-04T01:48:30.258Z,1.17
2023-04-04T01:51:02.239Z,1.20
2023-04-04T01:53:32.887Z,1.00
2023-04-04T01:55:59.249Z,1.30
2023-04-04T01:58:26.046Z,1.20
2023-04-04T02:01:00.616Z,1.60
2023-04-04T02:03:28.708Z,1.07
2023-04-04T02:05:54.924Z,1.00
2023-04-04T02:08:21.171Z,1.30
2023-04-04T02:10:57.812Z,1.63
2023-04-04T02:13:24.317Z,0.90
2023-04-04T02:15:51.702Z,1.10
2023-04-04T02:18:17.985Z,1.20
2023-04-04T02:20:55.757Z,1.57
2023-04-04T02:23:21.911Z,1.30
2023-04-04T02:25:50.528Z,1.20
2023-04-04T02:28:20.698Z,1.00
2023-04-04T02:30:51.579Z,0.80
2023-04-04T02:33:22.295Z,0.87
2023-04-04T02:35:52.488Z,0.93
2023-04-04T02:38:23.259Z,0.80
2023-04-04T02:40:53.156Z,1.40
2023-04-04T02:43:23.827Z,1.17
2023-04-04T02:45:56.713Z,0.90
2023-04-04T02:48:28.160Z,1.57
2023-04-04T02:50:58.052Z,1.20
2023-04-04T02:53:28.449Z,1.20
2023-04-04T02:55:58.539Z,1.10
2023-04-04T02:58:31.593Z,0.90
2023-04-04T03:00:59.689Z,1.33
2023-04-04T03:03:30.982Z,1.30
2023-04-04T03:06:00.323Z,1.17
2023-04-04T03:08:30.710Z,1.10
2023-04-04T03:11:01.070Z,0.90
2023-04-04T03:13:34.214Z,0.80
2023-04-04T03:16:06.055Z,1.10
2023-04-04T03:18:35.282Z,1.13
2023-04-04T03:21:10.981Z,1.03
2023-04-04T03:23:42.393Z,1.20
2023-04-04T03:26:12.263Z,1.00
2023-04-04T03:28:42.644Z,1.50
2023-04-04T03:31:12.860Z,1.90
2023-04-04T03:33:44.442Z,2.37
2023-04-04T03:36:14.390Z,1.60
2023-04-04T03:38:48.298Z,1.63
2023-04-04T03:41:20.007Z,1.30
2023-04-04T03:43:50.670Z,1.50
2023-04-04T03:46:20.901Z,1.30
2023-04-04T03:48:51.928Z,1.50
2023-04-04T03:51:24.158Z,1.20
2023-04-04T03:53:53.489Z,1.10
2023-04-04T03:56:31.909Z,1.20
2023-04-04T03:59:01.295Z,1.00
2023-04-04T04:01:31.887Z,1.13
2023-04-04T04:04:04.121Z,0.93
2023-04-04T04:06:36.080Z,1.47
2023-04-04T04:09:05.963Z,1.00
2023-04-04T04:11:36.161Z,1.33
2023-04-04T04:14:07.027Z,1.10
2023-04-04T04:16:41.238Z,1.27
2023-04-04T04:19:08.397Z,0.93
2023-04-04T04:21:44.157Z,2.17
2023-04-04T04:24:14.946Z,1.43
2023-04-04T04:26:45.328Z,1.07
2023-04-04T04:29:18.873Z,1.27
2023-04-04T04:31:52.155Z,1.30
2023-04-04T04:34:21.005Z,1.73
2023-04-04T04:36:53.113Z,1.70
2023-04-04T04:39:22.627Z,1.53
2023-04-04T04:41:53.185Z,2.23
2023-04-04T04:44:23.474Z,2.60
2023-04-04T04:46:58.046Z,3.10
2023-04-04T04:49:28.178Z,2.63
2023-04-04T04:51:58.972Z,2.17
2023-04-04T04:54:29.003Z,2.30
2023-04-04T04:57:00.700Z,2.50
2023-04-04T04:59:30.204Z,1.93
2023-04-04T05:02:00.925Z,1.60
2023-04-04T05:04:34.592Z,1.97
2023-04-04T05:07:07.535Z,2.10
2023-04-04T05:09:36.210Z,1.70
2023-04-04T05:12:07.114Z,2.17
2023-04-04T05:14:36.924Z,2.77
2023-04-04T05:17:07.159Z,1.87
2023-04-04T05:19:37.486Z,1.67
2023-04-04T05:22:11.004Z,2.10
2023-04-04T05:24:42.434Z,2.90
2023-04-04T05:27:11.551Z,3.13
2023-04-04T05:29:42.072Z,2.10
2023-04-04T05:32:12.635Z,2.53
2023-04-04T05:34:43.656Z,2.47
2023-04-04T05:37:14.920Z,2.60
2023-04-04T05:39:48.387Z,2.80
2023-04-04T05:42:19.470Z,2.80
2023-04-04T05:44:49.865Z,2.50
2023-04-04T05:47:23.445Z,2.63
2023-04-04T05:49:54.375Z,1.90
2023-04-04T05:52:24.756Z,2.03
2023-04-04T05:54:54.554Z,1.70
2023-04-04T05:57:25.634Z,2.20
2023-04-04T05:59:56.733Z,2.90
2023-04-04T06:02:28.505Z,3.10
2023-04-04T06:05:00.939Z,2.80
2023-04-04T06:07:32.371Z,2.33
2023-04-04T06:10:04.332Z,2.30
2023-04-04T06:12:33.300Z,1.80
2023-04-04T06:15:05.830Z,1.90
2023-04-04T06:17:35.558Z,2.13
2023-04-04T06:20:07.639Z,1.93
2023-04-04T06:22:43.498Z,2.27
2023-04-04T06:25:13.935Z,1.73
2023-04-04T06:27:43.817Z,1.70
2023-04-04T06:30:17.748Z,1.70
2023-04-04T06:32:48.759Z,1.60
2023-04-04T06:35:20.731Z,1.50
2023-04-04T06:37:57.041Z,1.40
2023-04-04T06:40:23.090Z,1.47
2023-04-04T06:42:57.156Z,1.27
2023-04-04T06:45:24.364Z,1.50
2023-04-04T06:47:59.435Z,1.20
2023-04-04T06:50:31.660Z,1.20
2023-04-04T06:53:02.769Z,1.30
2023-04-04T06:55:30.481Z,1.10
2023-04-04T06:58:02.328Z,1.53
2023-04-04T07:00:33.804Z,1.20
2023-04-04T07:03:05.415Z,1.20
2023-04-04T07:05:39.196Z,1.03
2023-04-04T07:08:07.825Z,1.20
2023-04-04T07:10:39.705Z,1.13
2023-04-04T07:13:17.435Z,1.73
2023-04-04T07:15:49.366Z,1.20
2023-04-04T07:18:19.181Z,1.40
2023-04-04T07:20:53.526Z,1.63
2023-04-04T07:23:26.477Z,1.30
2023-04-04T07:25:56.435Z,1.20
2023-04-04T07:28:27.037Z,1.60
2023-04-04T07:31:03.484Z,1.20
2023-04-04T07:33:29.783Z,1.63
2023-04-04T07:36:00.668Z,1.40
2023-04-04T07:38:35.547Z,1.50
2023-04-04T07:41:05.781Z,1.63
2023-04-04T07:43:37.650Z,1.50
2023-04-04T07:46:11.461Z,1.40
2023-04-04T07:48:42.505Z,1.60
2023-04-04T07:51:13.472Z,1.50
2023-04-04T07:53:43.560Z,1.70
2023-04-04T07:56:14.306Z,1.60
2023-04-04T07:58:45.391Z,1.97
2023-04-04T08:01:15.818Z,1.40
2023-04-04T08:03:52.681Z,1.47
2023-04-04T08:06:21.547Z,1.60
2023-04-04T08:08:51.655Z,1.47
2023-04-04T08:11:27.882Z,1.50
2023-04-04T08:13:57.476Z,1.60
2023-04-04T08:16:28.044Z,1.47
2023-04-04T08:19:00.134Z,1.47
2023-04-04T08:21:29.176Z,1.80
2023-04-04T08:24:00.219Z,1.30
2023-04-04T08:26:31.277Z,1.50
2023-04-04T08:29:05.503Z,1.30
2023-04-04T08:31:35.619Z,1.60
2023-04-04T08:34:07.556Z,1.53
2023-04-04T08:36:36.362Z,1.73
2023-04-04T08:39:07.066Z,1.30
2023-04-04T08:41:37.416Z,1.47
2023-04-04T08:44:08.776Z,2.07
2023-04-04T08:46:44.856Z,1.57
2023-04-04T08:49:15.553Z,1.60
2023-04-04T08:51:44.995Z,1.30
2023-04-04T08:54:16.444Z,1.73
2023-04-04T08:56:44.931Z,1.70
2023-04-04T08:59:18.069Z,1.90
2023-04-04T09:01:46.038Z,1.53
2023-04-04T09:04:20.629Z,1.80
2023-04-04T09:06:49.562Z,2.10
2023-04-04T09:09:19.445Z,1.50
2023-04-04T09:11:50.565Z,1.93
2023-04-04T09:14:20.591Z,1.90
2023-04-04T09:16:51.448Z,1.70
2023-04-04T09:19:23.192Z,1.90
2023-04-04T09:21:54.857Z,2.10
2023-04-04T09:24:38.588Z,2.03
2023-04-04T09:27:04.717Z,1.97
2023-04-04T09:29:37.621Z,2.00
2023-04-04T09:32:06.862Z,2.00
2023-04-04T09:34:33.127Z,1.60
2023-04-04T09:37:04.346Z,2.40
2023-04-04T09:39:33.939Z,1.47
2023-04-04T09:42:04.260Z,2.00
2023-04-04T09:44:36.182Z,1.60
2023-04-04T09:49:58.139Z,1.70
2023-04-04T09:52:24.461Z,1.63
2023-04-04T09:55:00.163Z,1.90
2023-04-04T09:57:28.952Z,1.80
2023-04-04T09:59:59.938Z,1.67
2023-04-04T10:02:40.504Z,1.80
2023-04-04T10:05:09.592Z,2.00
2023-04-04T10:07:38.619Z,1.60
2023-04-04T10:10:06.086Z,1.50
2023-04-04T10:12:37.374Z,2.20
2023-04-04T10:15:04.544Z,1.40
2023-04-04T10:17:35.849Z,1.60
2023-04-04T10:20:11.001Z,1.67
2023-04-04T10:22:38.164Z,1.60
2023-04-04T10:25:06.794Z,1.60
2023-04-04T10:27:33.572Z,1.80
2023-04-04T10:30:05.564Z,1.60
2023-04-04T10:32:44.409Z,1.50
2023-04-04T10:35:12.187Z,1.53
2023-04-04T10:37:53.881Z,1.40
2023-04-04T10:40:21.438Z,1.27
2023-04-04T10:42:49.389Z,1.30
2023-04-04T10:45:20.563Z,1.40
2023-04-04T10:47:50.945Z,1.53
2023-04-04T10:50:19.924Z,1.40
2023-04-04T10:52:46.483Z,1.40
2023-04-04T10:55:14.289Z,1.70
2023-04-04T10:57:42.734Z,1.30
2023-04-04T11:00:12.251Z,1.40
2023-04-04T11:02:56.145Z,1.67
2023-04-04T11:05:27.277Z,1.50
2023-04-04T11:08:09.422Z,1.30
2023-04-04T11:10:36.497Z,1.20
2023-04-04T11:13:13.402Z,1.20
2023-04-04T11:15:52.643Z,1.70
2023-04-04T11:18:39.592Z,1.67
2023-04-04T11:21:23.281Z,1.10
2023-04-04T11:23:58.048Z,1.30
2023-04-04T11:26:29.240Z,1.40
2023-04-04T11:29:04.314Z,1.43
2023-04-04T11:31:45.470Z,1.20
2023-04-04T11:34:30.133Z,1.10
2023-04-04T11:37:01.175Z,1.20
2023-04-04T11:39:30.070Z,1.30
2023-04-04T11:42:12.929Z,1.27
2023-04-04T11:45:01.627Z,1.20
2023-04-04T11:47:30.718Z,1.30
2023-04-04T11:49:59.789Z,1.20
2023-04-04T11:52:40.595Z,1.40
2023-04-04T11:55:16.476Z,1.40
2023-04-04T11:57:42.749Z,1.17
2023-04-04T12:00:34.219Z,1.80
2023-04-04T12:03:10.725Z,1.10
2023-04-04T12:05:46.048Z,1.60
2023-04-04T12:08:17.394Z,1.40
2023-04-04T12:10:49.448Z,1.30
2023-04-04T12:13:30.453Z,1.33
2023-04-04T12:16:01.824Z,1.40
2023-04-04T12:18:32.559Z,1.20
2023-04-04T12:21:06.868Z,1.50
2023-04-04T12:23:37.484Z,1.43
2023-04-04T12:26:08.918Z,1.30
2023-04-04T12:28:45.027Z,1.30
2023-04-04T12:31:16.775Z,1.20
2023-04-04T12:33:47.846Z,1.20
2023-04-04T12:36:29.090Z,1.40
2023-04-04T12:39:08.865Z,1.47
2023-04-04T12:41:53.350Z,1.30
2023-04-04T12:44:32.341Z,1.73
2023-04-04T12:47:06.418Z,1.40
2023-04-04T12:49:42.316Z,1.30
2023-04-04T12:52:27.057Z,1.37
2023-04-04T12:55:06.949Z,1.87
2023-04-04T12:57:35.291Z,3.37
2023-04-04T13:00:03.682Z,1.70
2023-04-04T13:02:30.054Z,1.83
2023-04-04T13:05:00.675Z,1.30
2023-04-04T13:07:30.572Z,1.60
2023-04-04T13:10:03.912Z,1.43
2023-04-04T13:12:59.008Z,1.60
2023-04-04T13:15:48.616Z,1.40
2023-04-04T13:18:24.139Z,1.70
2023-04-04T13:20:54.946Z,1.47
2023-04-04T13:23:23.179Z,1.53
2023-04-04T13:25:54.083Z,1.60
2023-04-04T13:28:26.503Z,1.53
2023-04-04T13:30:57.711Z,1.70
2023-04-04T13:33:23.964Z,1.80
2023-04-04T13:35:56.875Z,1.80
2023-04-04T13:38:28.322Z,1.40
2023-04-04T13:40:58.749Z,1.83
2023-04-04T13:43:31.628Z,1.63
2023-04-04T13:46:02.920Z,1.70
2023-04-04T13:48:33.514Z,1.87
2023-04-04T13:50:59.840Z,1.90
2023-04-04T13:53:30.528Z,1.70
2023-04-04T13:56:16.923Z,1.67
2023-04-04T13:58:50.641Z,1.40
2023-04-04T14:01:22.432Z,1.70
2023-04-04T14:03:53.009Z,1.60
2023-04-04T14:06:24.326Z,1.67
2023-04-04T14:08:55.046Z,1.50
2023-04-04T14:11:30.306Z,1.80
2023-04-04T14:14:01.073Z,1.80
2023-04-04T14:16:32.557Z,1.80
2023-04-04T14:19:03.889Z,1.47
2023-04-04T14:21:34.917Z,1.80
2023-04-04T14:24:09.980Z,1.50
2023-04-04T14:26:41.301Z,1.80
2023-04-04T14:29:12.148Z,1.93
2023-04-04T14:31:42.773Z,2.10
2023-04-04T14:34:13.328Z,1.77
2023-04-04T14:36:45.319Z,1.70
2023-04-04T14:39:16.024Z,1.70
2023-04-04T14:41:48.961Z,1.40
2023-04-04T14:44:21.180Z,1.70
2023-04-04T14:46:54.482Z,1.83
2023-04-04T14:49:28.756Z,1.30
2023-04-04T14:52:00.674Z,1.53
2023-04-04T14:54:31.664Z,1.60
2023-04-04T14:57:07.018Z,1.53
2023-04-04T14:59:37.792Z,1.40
2023-04-04T15:02:08.420Z,2.00
2023-04-04T15:04:39.299Z,1.63
2023-04-04T15:07:10.165Z,1.40
2023-04-04T15:09:41.318Z,1.47
2023-04-04T15:12:12.244Z,1.40
2023-04-04T15:14:46.041Z,1.47
2023-04-04T15:17:17.023Z,1.60
2023-04-04T15:19:47.536Z,2.50
2023-04-04T15:22:20.475Z,1.80
2023-04-04T15:24:51.685Z,1.80
2023-04-04T15:27:22.581Z,1.47
2023-04-04T15:29:53.651Z,1.53
2023-04-04T15:32:24.927Z,2.17
2023-04-04T15:34:57.647Z,1.63
2023-04-04T15:37:28.598Z,1.87
2023-04-04T15:40:03.693Z,1.63
2023-04-04T15:42:34.708Z,1.80
2023-04-04T15:45:07.156Z,1.87
2023-04-04T15:47:44.186Z,2.17
2023-04-04T15:50:15.896Z,1.57
2023-04-04T15:52:47.097Z,1.90
2023-04-04T15:55:18.962Z,1.87
2023-04-04T15:57:48.958Z,2.00
2023-04-04T16:00:19.972Z,2.07
2023-04-04T16:02:50.240Z,1.83
2023-04-04T16:05:24.095Z,1.60
2023-04-04T16:07:54.020Z,1.80
2023-04-04T16:10:24.431Z,2.10
2023-04-04T16:12:57.805Z,2.83
2023-04-04T16:15:28.421Z,1.70
2023-04-04T16:17:59.771Z,1.70
2023-04-04T16:20:29.942Z,1.47
2023-04-04T16:23:00.053Z,1.70
2023-04-04T16:25:29.894Z,2.00
2023-04-04T16:28:00.641Z,1.63
2023-04-04T16:30:34.828Z,2.13
2023-04-04T16:33:06.074Z,1.70
2023-04-04T16:35:36.618Z,1.83
2023-04-04T16:38:06.170Z,2.10
2023-04-04T16:40:36.681Z,1.67
2023-04-04T16:43:07.278Z,1.70
2023-04-04T16:45:37.497Z,1.90
2023-04-04T16:48:11.721Z,1.70
2023-04-04T16:50:41.813Z,1.70
2023-04-04T16:53:12.614Z,1.57
2023-04-04T16:55:43.180Z,1.83
2023-04-04T16:58:13.726Z,1.80
2023-04-04T17:00:44.680Z,1.93
2023-04-04T17:03:15.341Z,1.60
2023-04-04T17:05:49.127Z,1.97
2023-04-04T17:08:19.706Z,1.50
2023-04-04T17:10:51.104Z,1.50
2023-04-04T17:13:20.645Z,2.20
2023-04-04T17:15:50.942Z,1.93
2023-04-04T17:18:21.175Z,1.83
2023-04-04T17:20:51.765Z,1.60
2023-04-04T17:23:28.101Z,1.70
2023-04-04T17:25:59.158Z,1.60
2023-04-04T17:28:30.396Z,1.60
2023-04-04T17:31:06.946Z,1.93
2023-04-04T17:33:37.235Z,1.80
2023-04-04T17:36:08.364Z,1.30
2023-04-04T17:38:40.748Z,1.97
2023-04-04T17:41:12.016Z,2.00
2023-04-04T17:43:41.197Z,1.83
2023-04-04T17:46:11.929Z,1.80
2023-04-04T17:48:42.736Z,1.57
2023-04-04T17:51:13.214Z,2.03
2023-04-04T17:53:43.545Z,1.93
2023-04-04T17:56:15.156Z,1.70
2023-04-04T17:58:44.920Z,2.93
2023-04-04T18:01:15.587Z,2.10
2023-04-04T18:03:47.136Z,2.10
2023-04-04T18:06:20.432Z,2.50
2023-04-04T18:08:50.395Z,2.30
2023-04-04T18:11:20.399Z,1.80
2023-04-04T18:13:52.716Z,2.00
2023-04-04T18:16:23.341Z,2.00
2023-04-04T18:18:53.803Z,2.00
2023-04-04T18:21:24.397Z,2.40
2023-04-04T18:24:00.150Z,2.70
2023-04-04T18:26:31.845Z,2.10
2023-04-04T18:29:04.856Z,2.40
2023-04-04T18:31:37.841Z,2.70
2023-04-04T18:34:08.194Z,2.67
2023-04-04T18:36:39.123Z,2.33
2023-04-04T18:39:10.353Z,2.60
2023-04-04T18:41:39.874Z,2.77
2023-04-04T18:44:10.728Z,2.90
2023-04-04T18:46:41.612Z,2.70
2023-04-04T18:49:15.552Z,2.90
2023-04-04T18:51:46.883Z,3.07
2023-04-04T18:54:16.477Z,2.50
2023-04-04T18:56:47.325Z,2.60
2023-04-04T18:59:17.925Z,2.63
2023-04-04T19:01:47.670Z,2.20
2023-04-04T19:04:19.876Z,2.47
2023-04-04T19:06:54.895Z,2.80
2023-04-04T19:09:25.604Z,2.57
2023-04-04T19:11:55.474Z,2.30
2023-04-04T19:14:29.971Z,2.80
2023-04-04T19:17:02.081Z,3.20
2023-04-04T19:19:31.743Z,3.70
2023-04-04T19:22:01.861Z,3.60
2023-04-04T19:24:33.394Z,4.40
2023-04-04T19:27:04.285Z,4.40
2023-04-04T19:29:35.268Z,4.10
2023-04-04T19:32:16.682Z,4.30
2023-04-04T19:34:43.316Z,4.33
2023-04-04T19:37:14.632Z,4.40
2023-04-04T19:39:49.120Z,4.80
2023-04-04T19:42:26.355Z,4.60
2023-04-04T19:44:52.507Z,4.60
2023-04-04T19:47:23.364Z,4.67
2023-04-04T19:49:54.347Z,5.07
2023-04-04T19:52:25.317Z,5.63
2023-04-04T19:54:55.733Z,4.07
2023-04-04T19:57:28.966Z,4.90
2023-04-04T20:00:12.515Z,5.90
2023-04-04T20:02:52.030Z,6.00
2023-04-04T20:05:28.133Z,6.03
2023-04-04T20:07:54.808Z,5.40
2023-04-04T20:10:36.490Z,5.70
2023-04-04T20:13:07.853Z,6.70
2023-04-04T20:15:55.192Z,6.70
2023-04-04T20:18:31.070Z,7.43
2023-04-04T20:21:06.138Z,5.83
2023-04-04T20:23:51.793Z,4.40
2023-04-04T20:26:34.748Z,3.70
2023-04-04T20:29:13.558Z,3.10
2023-04-04T20:31:46.450Z,3.67
2023-04-04T20:34:45.962Z,3.73
2023-04-04T20:37:21.335Z,2.60
2023-04-04T20:39:54.365Z,2.50
2023-04-04T20:42:39.425Z,3.33
2023-04-04T20:45:10.452Z,2.60
2023-04-04T20:47:50.611Z,2.57
2023-04-04T20:50:19.926Z,2.60
2023-04-04T20:52:49.749Z,2.50
2023-04-04T20:55:20.007Z,2.93
2023-04-04T20:58:06.000Z,2.43
2023-04-04T21:00:33.155Z,3.27
2023-04-04T21:03:01.507Z,2.40
2023-04-04T21:05:29.761Z,2.40
2023-04-04T21:07:57.492Z,3.60
2023-04-04T21:10:45.595Z,2.57
2023-04-04T21:13:25.996Z,5.80
2023-04-04T21:16:16.048Z,3.10
2023-04-04T21:18:59.002Z,3.70
2023-04-04T21:21:29.832Z,2.80
2023-04-04T21:24:00.966Z,2.67
2023-04-04T21:26:35.846Z,2.90
2023-04-04T21:29:08.337Z,3.03
2023-04-04T21:31:40.718Z,2.77
2023-04-04T21:34:15.840Z,3.17
2023-04-04T21:36:59.667Z,3.17
2023-04-04T21:39:30.961Z,3.23
2023-04-04T21:42:04.608Z,4.40
2023-04-04T21:44:37.989Z,4.50
2023-04-04T21:47:08.943Z,4.07
2023-04-04T21:49:40.186Z,3.73
2023-04-04T21:52:11.119Z,3.70
2023-04-04T21:54:42.167Z,3.07
2023-04-04T21:57:15.228Z,3.27
2023-04-04T21:59:46.764Z,4.00
2023-04-04T22:02:17.433Z,3.03
2023-04-04T22:04:52.596Z,3.13
2023-04-04T22:07:23.325Z,2.60
2023-04-04T22:09:57.984Z,2.60
2023-04-04T22:12:32.842Z,2.20
2023-04-04T22:15:03.952Z,1.60
2023-04-04T22:17:35.524Z,2.03
2023-04-04T22:20:10.471Z,1.90
2023-04-04T22:22:43.054Z,1.97
2023-04-04T22:25:14.836Z,2.07
2023-04-04T22:27:48.949Z,1.83
2023-04-04T22:30:20.940Z,1.90
2023-04-04T22:32:58.700Z,2.07
2023-04-04T22:35:27.401Z,3.30
2023-04-04T22:38:02.437Z,3.37
2023-04-04T22:40:31.606Z,3.57
2023-04-04T22:43:01.139Z,3.60
2023-04-04T22:45:36.752Z,3.67
2023-04-04T22:48:06.540Z,3.20
2023-04-04T22:50:37.158Z,3.60
2023-04-04T22:53:12.319Z,3.23
2023-04-04T22:55:39.364Z,3.07
2023-04-04T22:58:08.512Z,3.20
2023-04-04T23:00:39.653Z,3.53
2023-04-04T23:03:15.941Z,3.40
2023-04-04T23:05:46.438Z,3.60
2023-04-04T23:08:17.215Z,3.30
2023-04-04T23:10:50.499Z,3.77
2023-04-04T23:13:21.202Z,4.27
2023-04-04T23:15:51.763Z,3.80
2023-04-04T23:18:21.779Z,3.40
2023-04-04T23:20:52.371Z,3.70
2023-04-04T23:23:22.670Z,4.17
2023-04-04T23:25:53.951Z,3.30
2023-04-04T23:28:28.551Z,3.33
2023-04-04T23:30:58.334Z,4.47
2023-04-04T23:33:28.886Z,3.33
2023-04-04T23:35:59.183Z,3.53
2023-04-04T23:38:29.646Z,3.40
2023-04-04T23:41:00.100Z,3.10
2023-04-04T23:43:32.285Z,3.93
2023-04-04T23:46:07.230Z,3.17
2023-04-04T23:48:37.462Z,3.20
2023-04-04T23:51:07.925Z,2.87
2023-04-04T23:53:42.021Z,2.60
2023-04-04T23:56:12.921Z,2.60
2023-04-04T23:58:43.212Z,2.50
